createdAt,value
2018-07-02T00:00:05.583Z,49.31
2018-07-02T00:01:05.570Z,49.41
2018-07-02T00:02:05.558Z,49.50
2018-07-02T00:03:05.561Z,49.79
2018-07-02T00:04:05.529Z,49.50
2018-07-02T00:05:05.514Z,49.60
2018-07-02T00:06:05.505Z,49.50
2018-07-02T00:07:05.494Z,49.69
2018-07-02T00:08:05.497Z,49.79
2018-07-02T00:09:05.464Z,49.88
2018-07-02T00:10:05.454Z,49.79
2018-07-02T00:11:05.436Z,50.08
2018-07-02T00:12:05.418Z,49.69
2018-07-02T00:13:05.409Z,49.88
2018-07-02T00:14:05.395Z,50.08
2018-07-02T00:15:05.383Z,50.46
2018-07-02T00:16:05.374Z,50.46
2018-07-02T00:17:05.358Z,50.65
2018-07-02T00:18:05.345Z,50.27
2018-07-02T00:19:05.326Z,50.17
2018-07-02T00:20:05.316Z,50.27
2018-07-02T00:21:05.322Z,50.17
2018-07-02T00:22:05.286Z,50.46
2018-07-02T00:23:05.287Z,50.65
2018-07-02T00:24:05.259Z,50.17
2018-07-02T00:25:05.249Z,50.46
2018-07-02T00:26:05.233Z,50.94
2018-07-02T00:27:05.228Z,50.75
2018-07-02T00:28:05.220Z,50.94
2018-07-02T00:29:05.190Z,50.65
2018-07-02T00:30:05.180Z,50.84
2018-07-02T00:31:05.164Z,51.04
2018-07-02T00:32:05.164Z,51.04
2018-07-02T00:33:05.148Z,50.94
2018-07-02T00:34:05.124Z,50.75
2018-07-02T00:35:05.114Z,50.84
2018-07-02T00:36:05.114Z,51.14
2018-07-02T00:37:05.091Z,51.30
2018-07-02T00:38:05.064Z,51.20
2018-07-02T00:39:05.063Z,51.42
2018-07-02T00:40:05.052Z,50.82
2018-07-02T00:41:05.025Z,50.75
2018-07-02T00:42:05.018Z,50.94
2018-07-02T00:43:05.049Z,50.73
2018-07-02T00:44:04.987Z,50.84
2018-07-02T00:45:04.975Z,51.30
2018-07-02T00:46:04.969Z,51.49
2018-07-02T00:47:04.953Z,51.68
2018-07-02T00:48:04.947Z,51.68
2018-07-02T00:49:04.916Z,51.59
2018-07-02T00:50:04.908Z,51.40
2018-07-02T00:51:04.891Z,51.40
2018-07-02T00:52:04.892Z,51.20
2018-07-02T00:53:04.868Z,51.97
2018-07-02T00:54:04.848Z,51.10
2018-07-02T00:55:04.851Z,51.49
2018-07-02T00:56:04.836Z,51.30
2018-07-02T00:57:04.831Z,51.30
2018-07-02T00:58:04.808Z,51.40
2018-07-02T00:59:04.790Z,51.78
2018-07-02T01:00:04.780Z,51.49
2018-07-02T01:01:04.762Z,51.68
2018-07-02T01:02:04.739Z,51.49
2018-07-02T01:03:04.737Z,51.40
2018-07-02T01:04:04.719Z,51.01
2018-07-02T01:05:04.705Z,51.49
2018-07-02T01:06:04.697Z,51.49
2018-07-02T01:07:04.696Z,51.01
2018-07-02T01:08:04.704Z,51.40
2018-07-02T01:09:04.652Z,51.20
2018-07-02T01:10:04.633Z,51.20
2018-07-02T01:11:04.628Z,51.30
2018-07-02T01:12:04.607Z,51.10
2018-07-02T01:13:04.597Z,51.49
2018-07-02T01:14:04.578Z,51.20
2018-07-02T01:15:04.569Z,51.68
2018-07-02T01:16:04.563Z,51.59
2018-07-02T01:17:04.559Z,51.49
2018-07-02T01:18:04.529Z,51.40
2018-07-02T01:19:04.513Z,51.59
2018-07-02T01:20:04.501Z,51.78
2018-07-02T01:21:04.493Z,51.59
2018-07-02T01:22:04.475Z,51.68
2018-07-02T01:23:04.460Z,51.78
2018-07-02T01:24:04.440Z,51.65
2018-07-02T01:25:04.433Z,52.45
2018-07-02T01:26:04.424Z,52.04
2018-07-02T01:27:04.432Z,52.33
2018-07-02T01:28:04.391Z,52.33
2018-07-02T01:29:04.373Z,52.33
2018-07-02T01:30:04.355Z,52.04
2018-07-02T01:31:04.359Z,52.14
2018-07-02T01:32:04.337Z,52.33
2018-07-02T01:33:04.317Z,52.42
2018-07-02T01:34:04.307Z,52.62
2018-07-02T01:35:04.299Z,52.71
2018-07-02T01:36:04.278Z,52.71
2018-07-02T01:37:04.271Z,52.42
2018-07-02T01:38:04.259Z,52.71
2018-07-02T01:39:04.243Z,52.71
2018-07-02T01:40:04.227Z,52.62
2018-07-02T01:41:04.210Z,52.71
2018-07-02T01:42:04.193Z,52.52
2018-07-02T01:43:04.194Z,52.42
2018-07-02T01:44:04.168Z,52.52
2018-07-02T01:45:04.172Z,53.00
2018-07-02T01:46:04.156Z,53.19
2018-07-02T01:47:04.129Z,53.19
2018-07-02T01:48:04.109Z,53.00
2018-07-02T01:49:04.096Z,52.91
2018-07-02T01:50:04.090Z,52.91
2018-07-02T01:51:04.067Z,52.81
2018-07-02T01:52:04.057Z,52.71
2018-07-02T01:53:04.046Z,52.71
2018-07-02T01:54:04.033Z,53.09
2018-07-02T01:55:04.079Z,53.28
2018-07-02T01:56:04.002Z,53.28
2018-07-02T01:57:03.996Z,53.48
2018-07-02T01:58:03.982Z,53.48
2018-07-02T01:59:03.959Z,53.28
2018-07-02T02:00:03.943Z,53.28
2018-07-02T02:01:03.930Z,53.48
2018-07-02T02:02:03.930Z,53.19
2018-07-02T02:03:03.918Z,53.38
2018-07-02T02:04:03.897Z,53.28
2018-07-02T02:05:03.880Z,53.28
2018-07-02T02:06:03.874Z,53.19
2018-07-02T02:07:03.858Z,53.28
2018-07-02T02:08:03.828Z,53.28
2018-07-02T02:09:03.822Z,53.58
2018-07-02T02:10:03.808Z,54.15
2018-07-02T02:11:03.794Z,53.83
2018-07-02T02:12:03.787Z,53.45
2018-07-02T02:13:03.770Z,53.38
2018-07-02T02:14:03.759Z,53.64
2018-07-02T02:15:03.747Z,54.03
2018-07-02T02:16:03.717Z,54.03
2018-07-02T02:17:03.715Z,54.12
2018-07-02T02:18:03.693Z,53.93
2018-07-02T02:19:03.679Z,54.60
2018-07-02T02:20:03.668Z,54.79
2018-07-02T02:21:03.657Z,54.70
2018-07-02T02:22:03.645Z,54.70
2018-07-02T02:23:03.630Z,54.70
2018-07-02T02:24:03.611Z,54.22
2018-07-02T02:25:03.606Z,54.79
2018-07-02T02:26:03.586Z,54.79
2018-07-02T02:27:03.581Z,54.50
2018-07-02T02:28:03.550Z,54.41
2018-07-02T02:29:03.537Z,54.79
2018-07-02T02:30:03.537Z,54.70
2018-07-02T02:31:03.516Z,55.27
2018-07-02T02:32:03.520Z,54.99
2018-07-02T02:33:03.491Z,55.08
2018-07-02T02:34:03.468Z,54.99
2018-07-02T02:35:03.456Z,55.46
2018-07-02T02:36:03.443Z,55.36
2018-07-02T02:37:03.427Z,55.18
2018-07-02T02:38:03.421Z,55.27
2018-07-02T02:39:03.427Z,55.75
2018-07-02T02:40:03.377Z,55.36
2018-07-02T02:41:03.368Z,55.65
2018-07-02T02:42:03.367Z,55.75
2018-07-02T02:43:03.339Z,55.56
2018-07-02T02:44:03.326Z,55.27
2018-07-02T02:45:03.315Z,55.65
2018-07-02T02:46:03.300Z,55.46
2018-07-02T02:47:03.282Z,55.65
2018-07-02T02:48:03.268Z,55.08
2018-07-02T02:49:03.255Z,55.65
2018-07-02T02:50:03.260Z,56.32
2018-07-02T02:51:03.235Z,56.10
2018-07-02T02:52:03.209Z,56.20
2018-07-02T02:53:03.200Z,55.91
2018-07-02T02:54:03.198Z,55.91
2018-07-02T02:55:03.170Z,56.49
2018-07-02T02:56:03.165Z,56.30
2018-07-02T02:57:03.141Z,55.91
2018-07-02T02:58:03.122Z,56.39
2018-07-02T02:59:03.114Z,56.39
2018-07-02T03:00:03.099Z,56.59
2018-07-02T03:01:03.087Z,56.39
2018-07-02T03:02:03.070Z,56.39
2018-07-02T03:03:03.056Z,56.68
2018-07-02T03:04:03.046Z,56.20
2018-07-02T03:05:03.031Z,56.77
2018-07-02T03:06:03.029Z,56.97
2018-07-02T03:07:02.994Z,57.35
2018-07-02T03:08:02.987Z,57.06
2018-07-02T03:09:02.974Z,56.97
2018-07-02T03:10:02.961Z,57.16
2018-07-02T03:11:02.938Z,57.35
2018-07-02T03:12:02.931Z,57.54
2018-07-02T03:13:02.909Z,57.35
2018-07-02T03:14:02.902Z,57.54
2018-07-02T03:15:02.885Z,57.35
2018-07-02T03:16:02.872Z,57.35
2018-07-02T03:17:02.853Z,57.45
2018-07-02T03:18:02.850Z,57.16
2018-07-02T03:19:02.840Z,57.26
2018-07-02T03:20:02.822Z,57.54
2018-07-02T03:21:02.798Z,57.83
2018-07-02T03:22:02.789Z,57.83
2018-07-02T03:23:02.784Z,58.02
2018-07-02T03:24:02.774Z,57.83
2018-07-02T03:25:02.749Z,57.54
2018-07-02T03:26:02.733Z,57.45
2018-07-02T03:27:02.718Z,57.83
2018-07-02T03:28:02.702Z,57.92
2018-07-02T03:29:02.687Z,57.92
2018-07-02T03:30:02.682Z,57.73
2018-07-02T03:31:02.662Z,57.92
2018-07-02T03:32:02.647Z,57.73
2018-07-02T03:33:02.624Z,58.50
2018-07-02T03:34:02.616Z,58.40
2018-07-02T03:35:02.633Z,58.50
2018-07-02T03:36:02.587Z,57.83
2018-07-02T03:37:02.574Z,57.45
2018-07-02T03:38:02.557Z,57.45
2018-07-02T03:39:02.551Z,57.73
2018-07-02T03:40:02.524Z,57.83
2018-07-02T03:41:02.538Z,58.12
2018-07-02T03:42:02.512Z,57.70
2018-07-02T03:43:02.483Z,58.22
2018-07-02T03:44:02.478Z,57.92
2018-07-02T03:45:02.456Z,58.22
2018-07-02T03:46:02.441Z,57.64
2018-07-02T03:47:02.429Z,58.31
2018-07-02T03:48:02.421Z,57.83
2018-07-02T03:49:02.410Z,57.73
2018-07-02T03:50:02.383Z,57.54
2018-07-02T03:51:02.375Z,58.31
2018-07-02T03:52:02.383Z,58.22
2018-07-02T03:53:02.349Z,58.22
2018-07-02T03:54:02.330Z,57.83
2018-07-02T03:55:02.319Z,57.73
2018-07-02T03:56:02.303Z,57.83
2018-07-02T03:57:02.343Z,57.83
2018-07-02T03:58:02.285Z,57.73
2018-07-02T03:59:02.266Z,58.22
2018-07-02T04:00:02.250Z,57.92
2018-07-02T04:01:02.232Z,57.83
2018-07-02T04:02:02.212Z,57.73
2018-07-02T04:03:02.204Z,57.73
2018-07-02T04:04:02.194Z,57.45
2018-07-02T04:05:02.246Z,57.73
2018-07-02T04:06:02.161Z,57.83
2018-07-02T04:07:02.174Z,57.73
2018-07-02T04:08:02.141Z,57.45
2018-07-02T04:09:02.129Z,57.73
2018-07-02T04:10:02.098Z,57.83
2018-07-02T04:11:02.107Z,57.54
2018-07-02T04:12:02.088Z,57.73
2018-07-02T04:13:02.095Z,57.83
2018-07-02T04:14:02.045Z,58.02
2018-07-02T04:15:02.036Z,57.92
2018-07-02T04:16:02.014Z,58.22
2018-07-02T04:17:02.008Z,58.22
2018-07-02T04:18:01.993Z,58.31
2018-07-02T04:19:01.978Z,58.12
2018-07-02T04:20:01.976Z,57.83
2018-07-02T04:21:01.941Z,58.22
2018-07-02T04:22:01.929Z,58.22
2018-07-02T04:23:01.921Z,58.02
2018-07-02T04:24:01.915Z,58.02
2018-07-02T04:25:01.902Z,58.50
2018-07-02T04:26:01.879Z,58.02
2018-07-02T04:27:01.871Z,58.02
2018-07-02T04:28:01.855Z,58.31
2018-07-02T04:29:01.887Z,58.12
2018-07-02T04:30:01.806Z,58.31
2018-07-02T04:31:01.799Z,57.92
2018-07-02T04:32:01.797Z,57.83
2018-07-02T04:33:01.788Z,58.31
2018-07-02T04:34:01.754Z,58.12
2018-07-02T04:35:01.748Z,57.92
2018-07-02T04:36:01.729Z,58.40
2018-07-02T04:37:01.725Z,58.12
2018-07-02T04:38:01.699Z,57.83
2018-07-02T04:39:01.688Z,57.92
2018-07-02T04:40:01.694Z,58.12
2018-07-02T04:41:01.655Z,58.02
2018-07-02T04:42:01.675Z,58.22
2018-07-02T04:43:01.624Z,57.92
2018-07-02T04:44:01.613Z,58.22
2018-07-02T04:45:01.619Z,58.12
2018-07-02T04:46:01.640Z,57.92
2018-07-02T04:47:01.583Z,58.31
2018-07-02T04:48:01.561Z,58.22
2018-07-02T04:49:01.552Z,58.05
2018-07-02T04:50:01.537Z,58.34
2018-07-02T04:51:01.588Z,58.05
2018-07-02T04:52:01.519Z,58.05
2018-07-02T04:53:01.486Z,58.34
2018-07-02T04:54:01.477Z,58.05
2018-07-02T04:55:01.474Z,58.24
2018-07-02T04:56:01.477Z,58.53
2018-07-02T04:57:01.431Z,57.86
2018-07-02T04:58:01.491Z,58.24
2018-07-02T04:59:01.413Z,58.24
2018-07-02T05:00:01.381Z,58.15
2018-07-02T05:01:01.403Z,58.34
2018-07-02T05:02:01.367Z,57.76
2018-07-02T05:03:01.360Z,57.67
2018-07-02T05:04:01.393Z,57.95
2018-07-02T05:05:01.318Z,57.19
2018-07-02T05:06:01.316Z,57.19
2018-07-02T05:07:01.317Z,57.48
2018-07-02T05:08:01.331Z,57.67
2018-07-02T05:09:01.262Z,57.38
2018-07-02T05:10:01.255Z,57.38
2018-07-02T05:11:01.266Z,57.19
2018-07-02T05:12:01.255Z,57.19
2018-07-02T05:13:01.204Z,56.61
2018-07-02T05:14:01.184Z,56.90
2018-07-02T05:15:01.194Z,57.67
2018-07-02T05:16:01.164Z,56.90
2018-07-02T05:17:01.182Z,57.19
2018-07-02T05:18:01.137Z,57.19
2018-07-02T05:19:01.128Z,57.60
2018-07-02T05:20:01.105Z,57.21
2018-07-02T05:21:01.110Z,57.41
2018-07-02T05:22:01.111Z,56.93
2018-07-02T05:23:01.070Z,57.60
2018-07-02T05:24:01.070Z,56.83
2018-07-02T05:25:01.043Z,57.50
2018-07-02T05:26:01.057Z,57.41
2018-07-02T05:27:01.030Z,56.54
2018-07-02T05:28:01.010Z,56.74
2018-07-02T05:29:01.000Z,56.45
2018-07-02T05:30:00.979Z,56.35
2018-07-02T05:31:01.015Z,56.16
2018-07-02T05:32:00.935Z,56.64
2018-07-02T05:33:00.916Z,56.35
2018-07-02T05:34:00.900Z,55.97
2018-07-02T05:35:00.898Z,55.97
2018-07-02T05:36:00.890Z,56.07
2018-07-02T05:37:00.859Z,56.07
2018-07-02T05:38:00.855Z,55.87
2018-07-02T05:39:00.846Z,55.78
2018-07-02T05:40:00.831Z,56.07
2018-07-02T05:41:00.805Z,56.00
2018-07-02T05:42:00.791Z,56.19
2018-07-02T05:43:00.773Z,55.42
2018-07-02T05:44:00.766Z,55.33
2018-07-02T05:45:00.774Z,55.42
2018-07-02T05:46:00.777Z,55.33
2018-07-02T05:47:00.723Z,55.90
2018-07-02T05:48:00.734Z,55.62
2018-07-02T05:49:00.695Z,55.33
2018-07-02T05:50:00.678Z,55.42
2018-07-02T05:51:00.678Z,55.62
2018-07-02T05:52:00.645Z,55.71
2018-07-02T05:53:00.643Z,55.52
2018-07-02T05:54:00.642Z,55.52
2018-07-02T05:55:00.643Z,55.52
2018-07-02T05:56:00.636Z,54.39
2018-07-02T05:57:00.578Z,54.56
2018-07-02T05:58:00.581Z,54.46
2018-07-02T05:59:00.585Z,54.37
2018-07-02T06:00:00.573Z,54.94
2018-07-02T06:01:00.552Z,54.88
2018-07-02T06:02:00.505Z,54.58
2018-07-02T06:03:00.501Z,54.58
2018-07-02T06:04:00.496Z,54.49
2018-07-02T06:05:00.473Z,54.78
2018-07-02T06:06:00.533Z,54.78
2018-07-02T06:07:00.440Z,54.11
2018-07-02T06:08:00.534Z,54.21
2018-07-02T06:09:00.425Z,54.68
2018-07-02T06:10:00.416Z,54.21
2018-07-02T06:11:00.395Z,54.11
2018-07-02T06:12:00.371Z,54.11
2018-07-02T06:13:00.354Z,53.85
2018-07-02T06:14:00.564Z,53.56
2018-07-02T06:15:00.353Z,53.17
2018-07-02T06:16:00.318Z,52.81
2018-07-02T06:17:00.349Z,51.59
2018-07-02T06:18:00.305Z,50.63
2018-07-02T06:19:00.274Z,50.18
2018-07-02T06:20:00.288Z,50.56
2018-07-02T06:21:00.249Z,49.41
2018-07-02T06:22:00.226Z,49.31
2018-07-02T06:23:00.236Z,48.76
2018-07-02T06:24:00.219Z,48.28
2018-07-02T06:25:00.216Z,47.89
2018-07-02T06:26:00.238Z,47.53
2018-07-02T06:27:00.180Z,47.85
2018-07-02T06:28:00.191Z,46.14
2018-07-02T06:29:00.161Z,45.17
2018-07-02T06:30:00.163Z,45.39
2018-07-02T06:31:00.189Z,44.83
2018-07-02T06:32:00.124Z,43.19
2018-07-02T06:33:00.105Z,42.66
2018-07-02T06:34:00.110Z,40.55
2018-07-02T06:35:00.069Z,39.43
2018-07-02T06:36:00.062Z,37.73
2018-07-02T06:37:00.175Z,35.48
2018-07-02T06:38:00.147Z,33.07
2018-07-02T06:39:00.140Z,31.37
2018-07-02T06:40:00.224Z,28.99
2018-07-02T06:41:00.079Z,28.43
2018-07-02T06:42:01.148Z,27.11
2018-07-02T06:43:00.111Z,26.06
2018-07-02T06:44:00.201Z,24.81
2018-07-02T06:45:00.204Z,24.32
2018-07-02T06:46:00.273Z,23.76
2018-07-02T06:47:00.078Z,23.18
2018-07-02T06:47:59.910Z,22.70
2018-07-02T06:48:59.976Z,22.02
2018-07-02T06:50:00.120Z,21.75
2018-07-02T06:51:01.063Z,21.27
2018-07-02T06:52:00.096Z,20.59
2018-07-02T06:52:59.891Z,20.10
2018-07-02T06:54:00.021Z,20.12
2018-07-02T06:54:59.842Z,19.14
2018-07-02T06:56:00.015Z,19.74
2018-07-02T06:56:59.843Z,19.73
2018-07-02T06:57:59.825Z,19.72
2018-07-02T06:58:59.877Z,20.01
2018-07-02T06:59:59.802Z,20.59
2018-07-02T07:00:59.904Z,20.62
2018-07-02T07:01:59.828Z,18.77
2018-07-02T07:02:59.805Z,17.82
2018-07-02T07:03:59.853Z,17.43
2018-07-02T07:05:00.065Z,17.71
2018-07-02T07:05:59.793Z,17.79
2018-07-02T07:06:59.756Z,18.29
2018-07-02T07:07:59.764Z,17.40
2018-07-02T07:09:00.037Z,17.50
2018-07-02T07:09:59.838Z,16.92
2018-07-02T07:10:59.794Z,17.12
2018-07-02T07:11:59.702Z,16.64
2018-07-02T07:12:59.698Z,16.33
2018-07-02T07:13:59.705Z,16.92
2018-07-02T07:14:59.703Z,16.92
2018-07-02T07:15:59.700Z,16.63
2018-07-02T07:16:59.674Z,16.55
2018-07-02T07:17:59.669Z,15.86
2018-07-02T07:18:59.658Z,15.67
2018-07-02T07:19:59.656Z,15.56
2018-07-02T07:20:59.677Z,15.77
2018-07-02T07:21:59.699Z,15.77
2018-07-02T07:22:59.663Z,15.85
2018-07-02T07:23:59.625Z,16.43
2018-07-02T07:24:59.605Z,16.62
2018-07-02T07:25:59.635Z,16.93
2018-07-02T07:26:59.623Z,16.04
2018-07-02T07:27:59.619Z,16.72
2018-07-02T07:28:59.623Z,16.62
2018-07-02T07:29:59.592Z,16.43
2018-07-02T07:30:59.619Z,16.14
2018-07-02T07:31:59.596Z,16.82
2018-07-02T07:32:59.574Z,17.00
2018-07-02T07:33:59.574Z,17.38
2018-07-02T07:34:59.592Z,17.69
2018-07-02T07:35:59.596Z,17.39
2018-07-02T07:36:59.581Z,17.40
2018-07-02T07:37:59.596Z,17.40
2018-07-02T07:38:59.542Z,17.00
2018-07-02T07:39:59.532Z,16.61
2018-07-02T07:40:59.644Z,16.80
2018-07-02T07:41:59.528Z,17.56
2018-07-02T07:42:59.535Z,17.57
2018-07-02T07:43:59.525Z,18.36
2018-07-02T07:44:59.529Z,18.15
2018-07-02T07:45:59.533Z,17.96
2018-07-02T07:46:59.509Z,17.96
2018-07-02T07:47:59.519Z,17.96
2018-07-02T07:48:59.554Z,18.35
2018-07-02T07:49:59.537Z,18.80
2018-07-02T07:50:59.484Z,20.93
2018-07-02T07:51:59.503Z,21.11
2018-07-02T07:52:59.510Z,21.01
2018-07-02T07:53:59.488Z,21.01
2018-07-02T07:54:59.493Z,20.92
2018-07-02T07:55:59.516Z,21.21
2018-07-02T07:56:59.520Z,21.88
2018-07-02T07:57:59.464Z,22.27
2018-07-02T07:58:59.474Z,21.78
2018-07-02T07:59:59.496Z,22.45
2018-07-02T08:00:59.470Z,23.71
2018-07-02T08:01:59.451Z,23.32
2018-07-02T08:02:59.456Z,23.86
2018-07-02T08:03:59.492Z,24.52
2018-07-02T08:04:59.499Z,25.38
2018-07-02T08:05:59.471Z,26.54
2018-07-02T08:06:59.454Z,26.82
2018-07-02T08:07:59.444Z,27.78
2018-07-02T08:08:59.481Z,28.43
2018-07-02T08:09:59.465Z,29.17
2018-07-02T08:10:59.430Z,30.32
2018-07-02T08:11:59.434Z,31.20
2018-07-02T08:12:59.427Z,30.42
2018-07-02T08:13:59.429Z,31.10
2018-07-02T08:14:59.520Z,30.71
2018-07-02T08:15:59.413Z,29.46
2018-07-02T08:16:59.414Z,28.49
2018-07-02T08:17:59.414Z,29.26
2018-07-02T08:18:59.486Z,29.15
2018-07-02T08:19:59.439Z,30.29
2018-07-02T08:20:59.404Z,30.86
2018-07-02T08:21:59.407Z,30.86
2018-07-02T08:22:59.435Z,31.63
2018-07-02T08:23:59.408Z,32.02
2018-07-02T08:24:59.415Z,31.63
2018-07-02T08:25:59.440Z,32.01
2018-07-02T08:26:59.391Z,32.87
2018-07-02T08:27:59.381Z,31.83
2018-07-02T08:28:59.390Z,31.73
2018-07-02T08:29:59.382Z,31.43
2018-07-02T08:30:59.399Z,31.71
2018-07-02T08:31:59.359Z,31.62
2018-07-02T08:32:59.416Z,31.71
2018-07-02T08:33:59.369Z,31.81
2018-07-02T08:34:59.382Z,32.29
2018-07-02T08:35:59.359Z,32.49
2018-07-02T08:36:59.372Z,32.57
2018-07-02T08:37:59.328Z,32.86
2018-07-02T08:38:59.318Z,33.34
2018-07-02T08:39:59.330Z,33.25
2018-07-02T08:40:59.334Z,33.54
2018-07-02T08:41:59.315Z,33.92
2018-07-02T08:42:59.330Z,33.44
2018-07-02T08:43:59.294Z,33.63
2018-07-02T08:44:59.302Z,32.96
2018-07-02T08:45:59.287Z,33.05
2018-07-02T08:46:59.277Z,33.05
2018-07-02T08:47:59.267Z,33.92
2018-07-02T08:48:59.289Z,34.31
2018-07-02T08:49:59.272Z,33.05
2018-07-02T08:50:59.274Z,32.76
2018-07-02T08:51:59.250Z,33.05
2018-07-02T08:52:59.228Z,33.54
2018-07-02T08:53:59.231Z,33.34
2018-07-02T08:54:59.224Z,33.25
2018-07-02T08:55:59.208Z,33.07
2018-07-02T08:56:59.194Z,33.55
2018-07-02T08:57:59.224Z,32.78
2018-07-02T08:58:59.179Z,32.78
2018-07-02T08:59:59.185Z,33.07
2018-07-02T09:00:59.157Z,32.39
2018-07-02T09:01:59.160Z,32.59
2018-07-02T09:02:59.208Z,33.18
2018-07-02T09:03:59.156Z,33.26
2018-07-02T09:04:59.123Z,33.17
2018-07-02T09:05:59.172Z,32.89
2018-07-02T09:06:59.130Z,33.37
2018-07-02T09:07:59.109Z,32.79
2018-07-02T09:08:59.115Z,32.97
2018-07-02T09:09:59.110Z,33.07
2018-07-02T09:10:59.072Z,32.78
2018-07-02T09:11:59.073Z,33.17
2018-07-02T09:12:59.057Z,33.75
2018-07-02T09:13:59.037Z,33.45
2018-07-02T09:14:59.096Z,33.75
2018-07-02T09:15:59.039Z,33.45
2018-07-02T09:16:59.051Z,33.17
2018-07-02T09:17:59.554Z,32.68
2018-07-02T09:18:59.008Z,32.78
2018-07-02T09:19:58.998Z,32.78
2018-07-02T09:20:58.989Z,32.99
2018-07-02T09:21:58.982Z,32.51
2018-07-02T09:22:59.000Z,32.31
2018-07-02T09:23:58.962Z,31.83
2018-07-02T09:24:58.977Z,31.91
2018-07-02T09:25:58.956Z,31.81
2018-07-02T09:26:58.937Z,31.91
2018-07-02T09:27:58.918Z,32.10
2018-07-02T09:28:58.910Z,32.10
2018-07-02T09:29:58.944Z,32.01
2018-07-02T09:30:58.886Z,31.52
2018-07-02T09:31:58.893Z,31.52
2018-07-02T09:32:58.895Z,31.81
2018-07-02T09:33:58.858Z,31.62
2018-07-02T09:34:58.872Z,31.71
2018-07-02T09:35:58.852Z,32.01
2018-07-02T09:36:58.891Z,32.10
2018-07-02T09:37:58.838Z,32.02
2018-07-02T09:38:58.872Z,31.43
2018-07-02T09:39:58.818Z,31.62
2018-07-02T09:40:58.798Z,31.91
2018-07-02T09:41:58.798Z,31.62
2018-07-02T09:42:58.778Z,32.20
2018-07-02T09:43:58.765Z,32.10
2018-07-02T09:44:58.761Z,31.52
2018-07-02T09:45:58.772Z,31.52
2018-07-02T09:46:58.754Z,31.71
2018-07-02T09:47:58.733Z,31.71
2018-07-02T09:48:58.736Z,31.43
2018-07-02T09:49:58.749Z,31.62
2018-07-02T09:50:58.716Z,31.62
2018-07-02T09:51:58.702Z,31.71
2018-07-02T09:52:58.700Z,32.12
2018-07-02T09:53:58.697Z,31.73
2018-07-02T09:54:58.717Z,32.02
2018-07-02T09:55:58.657Z,32.21
2018-07-02T09:56:58.657Z,32.21
2018-07-02T09:57:58.643Z,31.63
2018-07-02T09:58:58.646Z,30.98
2018-07-02T09:59:58.625Z,30.57
2018-07-02T10:00:58.669Z,30.58
2018-07-02T10:01:58.638Z,30.76
2018-07-02T10:02:58.588Z,30.96
2018-07-02T10:03:58.595Z,31.05
2018-07-02T10:04:58.582Z,31.15
2018-07-02T10:05:58.574Z,31.44
2018-07-02T10:06:58.580Z,30.76
2018-07-02T10:07:58.551Z,31.15
2018-07-02T10:08:58.568Z,31.44
2018-07-02T10:09:58.540Z,31.26
2018-07-02T10:10:58.593Z,31.36
2018-07-02T10:11:58.544Z,30.78
2018-07-02T10:12:58.520Z,30.96
2018-07-02T10:13:58.561Z,31.26
2018-07-02T10:14:58.510Z,31.26
2018-07-02T10:15:58.492Z,30.96
2018-07-02T10:16:58.487Z,31.34
2018-07-02T10:17:58.470Z,32.02
2018-07-02T10:18:58.447Z,31.93
2018-07-02T10:19:58.442Z,32.12
2018-07-02T10:20:58.428Z,32.12
2018-07-02T10:21:58.431Z,32.51
2018-07-02T10:22:58.411Z,31.63
2018-07-02T10:23:58.439Z,31.26
2018-07-02T10:24:58.403Z,31.65
2018-07-02T10:25:58.445Z,31.56
2018-07-02T10:26:58.428Z,31.94
2018-07-02T10:27:58.381Z,31.84
2018-07-02T10:28:58.384Z,32.23
2018-07-02T10:29:58.346Z,31.16
2018-07-02T10:30:58.395Z,30.88
2018-07-02T10:31:58.328Z,31.46
2018-07-02T10:32:58.327Z,31.28
2018-07-02T10:33:58.330Z,30.98
2018-07-02T10:34:58.361Z,30.79
2018-07-02T10:35:58.284Z,30.31
2018-07-02T10:36:58.319Z,30.21
2018-07-02T10:37:58.297Z,30.00
2018-07-02T10:38:58.273Z,30.00
2018-07-02T10:39:58.319Z,29.61
2018-07-02T10:40:58.241Z,30.39
2018-07-02T10:41:58.287Z,30.29
2018-07-02T10:42:58.231Z,30.29
2018-07-02T10:43:58.213Z,30.58
2018-07-02T10:44:58.473Z,31.16
2018-07-02T10:45:58.195Z,31.07
2018-07-02T10:46:58.288Z,30.78
2018-07-02T10:47:58.195Z,31.07
2018-07-02T10:48:58.185Z,31.16
2018-07-02T10:49:58.175Z,31.46
2018-07-02T10:50:58.169Z,31.37
2018-07-02T10:51:58.154Z,31.26
2018-07-02T10:52:58.134Z,31.65
2018-07-02T10:53:58.157Z,31.65
2018-07-02T10:54:58.244Z,31.26
2018-07-02T10:55:58.236Z,30.39
2018-07-02T10:56:58.123Z,30.39
2018-07-02T10:57:58.096Z,29.81
2018-07-02T10:58:58.153Z,30.02
2018-07-02T10:59:58.075Z,30.02
2018-07-02T11:00:58.063Z,29.15
2018-07-02T11:01:58.052Z,29.05
2018-07-02T11:02:58.049Z,29.15
2018-07-02T11:03:58.042Z,28.56
2018-07-02T11:04:58.053Z,29.05
2018-07-02T11:05:58.031Z,29.05
2018-07-02T11:06:58.009Z,29.34
2018-07-02T11:07:57.998Z,29.05
2018-07-02T11:08:57.996Z,29.23
2018-07-02T11:09:57.982Z,29.13
2018-07-02T11:10:57.987Z,29.13
2018-07-02T11:11:58.009Z,29.23
2018-07-02T11:12:57.980Z,29.23
2018-07-02T11:13:57.949Z,29.43
2018-07-02T11:14:57.951Z,30.20
2018-07-02T11:15:57.935Z,30.58
2018-07-02T11:16:57.928Z,31.16
2018-07-02T11:17:57.919Z,31.16
2018-07-02T11:18:57.913Z,31.07
2018-07-02T11:19:57.919Z,31.07
2018-07-02T11:20:57.883Z,30.88
2018-07-02T11:21:57.891Z,30.49
2018-07-02T11:22:57.912Z,29.81
2018-07-02T11:23:57.911Z,30.29
2018-07-02T11:24:57.897Z,30.58
2018-07-02T11:25:57.891Z,31.16
2018-07-02T11:26:57.830Z,31.28
2018-07-02T11:27:57.837Z,31.37
2018-07-02T11:28:57.817Z,30.89
2018-07-02T11:29:57.844Z,31.18
2018-07-02T11:30:57.808Z,31.09
2018-07-02T11:31:57.838Z,30.99
2018-07-02T11:32:57.800Z,31.28
2018-07-02T11:33:57.774Z,31.49
2018-07-02T11:34:57.777Z,31.28
2018-07-02T11:35:57.788Z,31.20
2018-07-02T11:36:57.749Z,30.81
2018-07-02T11:37:57.733Z,31.28
2018-07-02T11:38:57.724Z,31.57
2018-07-02T11:39:58.606Z,31.59
2018-07-02T11:40:57.780Z,31.68
2018-07-02T11:41:58.604Z,31.39
2018-07-02T11:42:57.705Z,31.39
2018-07-02T11:43:58.227Z,31.29
2018-07-02T11:44:57.678Z,31.01
2018-07-02T11:45:57.661Z,31.29
2018-07-02T11:46:57.662Z,31.59
2018-07-02T11:47:57.656Z,31.59
2018-07-02T11:48:57.637Z,30.81
2018-07-02T11:49:57.648Z,30.52
2018-07-02T11:50:57.673Z,30.91
2018-07-02T11:51:57.692Z,31.01
2018-07-02T11:52:57.592Z,31.10
2018-07-02T11:53:57.594Z,30.71
2018-07-02T11:54:57.596Z,31.01
2018-07-02T11:55:57.597Z,31.39
2018-07-02T11:56:57.647Z,31.10
2018-07-02T11:57:57.562Z,31.20
2018-07-02T11:58:57.595Z,31.01
2018-07-02T11:59:57.590Z,31.39
2018-07-02T12:00:57.535Z,31.01
2018-07-02T12:01:57.567Z,31.29
2018-07-02T12:02:57.563Z,31.67
2018-07-02T12:03:57.515Z,31.39
2018-07-02T12:04:57.911Z,31.20
2018-07-02T12:05:58.787Z,31.29
2018-07-02T12:06:57.852Z,31.37
2018-07-02T12:07:57.907Z,31.37
2018-07-02T12:08:58.554Z,31.67
2018-07-02T12:09:57.684Z,31.67
2018-07-02T12:10:57.488Z,31.94
2018-07-02T12:11:58.122Z,32.14
2018-07-02T12:12:57.465Z,31.94
2018-07-02T12:13:57.448Z,31.37
2018-07-02T12:14:57.445Z,31.86
2018-07-02T12:15:57.391Z,31.78
2018-07-02T12:16:57.394Z,31.59
2018-07-02T12:17:57.374Z,31.39
2018-07-02T12:18:57.392Z,31.20
2018-07-02T12:19:57.368Z,30.81
2018-07-02T12:20:57.373Z,31.20
2018-07-02T12:21:57.397Z,30.52
2018-07-02T12:22:57.438Z,30.32
2018-07-02T12:23:57.341Z,30.42
2018-07-02T12:24:57.340Z,31.10
2018-07-02T12:25:57.311Z,30.42
2018-07-02T12:26:57.300Z,30.62
2018-07-02T12:27:57.340Z,30.81
2018-07-02T12:28:57.411Z,30.91
2018-07-02T12:29:57.268Z,30.23
2018-07-02T12:30:57.269Z,30.62
2018-07-02T12:31:57.311Z,30.62
2018-07-02T12:32:57.283Z,30.52
2018-07-02T12:33:57.436Z,30.52
2018-07-02T12:34:57.431Z,31.01
2018-07-02T12:35:57.348Z,30.81
2018-07-02T12:36:57.349Z,30.62
2018-07-02T12:37:57.198Z,30.91
2018-07-02T12:38:57.201Z,31.10
2018-07-02T12:39:57.202Z,30.81
2018-07-02T12:40:57.183Z,31.18
2018-07-02T12:41:57.181Z,30.81
2018-07-02T12:42:57.173Z,30.69
2018-07-02T12:43:57.191Z,30.62
2018-07-02T12:44:57.158Z,30.42
2018-07-02T12:45:57.130Z,30.31
2018-07-02T12:46:57.153Z,30.71
2018-07-02T12:47:57.121Z,30.52
2018-07-02T12:48:57.130Z,30.52
2018-07-02T12:49:57.145Z,30.71
2018-07-02T12:50:57.098Z,30.52
2018-07-02T12:51:57.119Z,29.64